sensor_id;sensor_type;location;lat;lon;timestamp;temperature;humidity
2653;DHT22;1336;48.692;9.144;2023-03-01T06:00:12;3.90;97.20
2653;DHT22;1336;48.692;9.144;2023-03-01T06:01:04;3.90;97.20
2653;DHT22;1336;48.692;9.144;2023-03-01T06:01:55;3.90;97.20
2653;DHT22;1336;48.692;9.144;2023-03-01T06:02:46;3.90;97.20
2653;DHT22;1336;48.692;9.144;2023-03-01T06:03:37;3.90;97.20
2653;DHT22;1336;48.692;9.144;2023-03-01T06:04:29;3.90;97.20
2653;DHT22;1336;48.692;9.144;2023-03-01T06:05:20;3.90;97.20
2653;DHT22;1336;48.692;9.144;2023-03-01T06:06:12;3.90;97.20
2653;DHT22;1336;48.692;9.144;2023-03-01T06:07:03;3.90;97.20
2653;DHT22;1336;48.692;9.144;2023-03-01T06:07:54;3.90;97.20
2653;DHT22;1336;48.692;9.144;2023-03-01T06:08:45;3.90;97.20
2653;DHT22;1336;48.692;9.144;2023-03-01T06:09:37;3.90;97.20
2653;DHT22;1336;48.692;9.144;2023-03-01T06:10:28;3.90;97.20
2653;DHT22;1336;48.692;9.144;2023-03-01T06:11:20;3.90;97.20
2653;DHT22;1336;48.692;9.144;2023-03-01T06:12:13;3.90;97.20
2653;DHT22;1336;48.692;9.144;2023-03-01T06:13:05;3.90;97.20
2653;DHT22;1336;48.692;9.144;2023-03-01T06:13:55;3.90;97.20
2653;DHT22;1336;48.692;9.144;2023-03-01T06:14:47;3.90;97.20
2653;DHT22;1336;48.692;9.144;2023-03-01T06:15:40;3.90;97.20
2653;DHT22;1336;48.692;9.144;2023-03-01T06:16:31;3.90;97.20
2653;DHT22;1336;48.692;9.144;2023-03-01T06:17:22;3.90;97.20
2653;DHT22;1336;48.692;9.144;2023-03-01T06:18:14;3.90;97.20
2653;DHT22;1336;48.692;9.144;2023-03-01T06:19:04;3.90;97.20
2653;DHT22;1336;48.692;9.144;2023-03-01T06:19:56;4.00;97.20
2653;DHT22;1336;48.692;9.144;2023-03-01T06:20:52;4.00;97.20
2653;DHT22;1336;48.692;9.144;2023-03-01T06:21:45;4.00;97.20
2653;DHT22;1336;48.692;9.144;2023-03-01T06:22:35;4.00;97.20
2653;DHT22;1336;48.692;9.144;2023-03-01T06:23:27;4.00;97.20
2653;DHT22;1336;48.692;9.144;2023-03-01T06:24:18;4.00;97.20
2653;DHT22;1336;48.692;9.144;2023-03-01T06:25:11;4.00;97.20
2653;DHT22;1336;48.692;9.144;2023-03-01T06:26:06;4.00;97.20
2653;DHT22;1336;48.692;9.144;2023-03-01T06:26:58;4.00;97.20
2653;DHT22;1336;48.692;9.144;2023-03-01T06:27:49;4.00;97.20
2653;DHT22;1336;48.692;9.144;2023-03-01T06:28:42;4.00;97.20
2653;DHT22;1336;48.692;9.144;2023-03-01T06:29:36;4.00;97.20
2653;DHT22;1336;48.692;9.144;2023-03-01T06:30:28;4.00;97.20
2653;DHT22;1336;48.692;9.144;2023-03-01T06:31:20;4.00;97.20
2653;DHT22;1336;48.692;9.144;2023-03-01T06:32:11;4.00;97.20
2653;DHT22;1336;48.692;9.144;2023-03-01T06:33:02;4.00;97.20
2653;DHT22;1336;48.692;9.144;2023-03-01T06:33:54;4.00;97.20
2653;DHT22;1336;48.692;9.144;2023-03-01T06:34:45;4.00;97.20
2653;DHT22;1336;48.692;9.144;2023-03-01T06:35:37;4.00;97.20
2653;DHT22;1336;48.692;9.144;2023-03-01T06:36:28;4.00;97.20
2653;DHT22;1336;48.692;9.144;2023-03-01T06:37:19;4.00;97.20
2653;DHT22;1336;48.692;9.144;2023-03-01T06:38:10;4.10;97.20
2653;DHT22;1336;48.692;9.144;2023-03-01T06:39:02;4.10;97.20
2653;DHT22;1336;48.692;9.144;2023-03-01T06:39:53;4.10;97.20
2653;DHT22;1336;48.692;9.144;2023-03-01T06:40:45;4.10;97.20
2653;DHT22;1336;48.692;9.144;2023-03-01T06:41:41;4.10;97.20
2653;DHT22;1336;48.692;9.144;2023-03-01T06:42:34;4.10;97.20
2653;DHT22;1336;48.692;9.144;2023-03-01T06:43:24;4.10;97.20
2653;DHT22;1336;48.692;9.144;2023-03-01T06:44:16;4.10;97.20
2653;DHT22;1336;48.692;9.144;2023-03-01T06:45:08;4.20;97.20
2653;DHT22;1336;48.692;9.144;2023-03-01T06:46:00;4.20;97.20
2653;DHT22;1336;48.692;9.144;2023-03-01T06:46:52;4.20;97.20
2653;DHT22;1336;48.692;9.144;2023-03-01T06:47:44;4.20;97.20
2653;DHT22;1336;48.692;9.144;2023-03-01T06:48:35;4.30;97.20
2653;DHT22;1336;48.692;9.144;2023-03-01T06:49:27;4.30;97.20
2653;DHT22;1336;48.692;9.144;2023-03-01T06:50:18;4.30;97.20
2653;DHT22;1336;48.692;9.144;2023-03-01T06:51:10;4.40;97.20
2653;DHT22;1336;48.692;9.144;2023-03-01T06:52:01;4.40;97.20
2653;DHT22;1336;48.692;9.144;2023-03-01T06:52:55;4.40;97.20
2653;DHT22;1336;48.692;9.144;2023-03-01T06:53:46;4.50;97.20
2653;DHT22;1336;48.692;9.144;2023-03-01T06:54:38;4.50;97.20
2653;DHT22;1336;48.692;9.144;2023-03-01T06:55:29;4.50;97.20
2653;DHT22;1336;48.692;9.144;2023-03-01T06:56:21;4.50;97.20
2653;DHT22;1336;48.692;9.144;2023-03-01T06:57:12;4.50;97.20
2653;DHT22;1336;48.692;9.144;2023-03-01T06:58:03;4.50;97.20
2653;DHT22;1336;48.692;9.144;2023-03-01T06:58:54;4.40;97.20
2653;DHT22;1336;48.692;9.144;2023-03-01T06:59:46;4.50;97.20
2653;DHT22;1336;48.692;9.144;2023-03-01T07:00:37;4.40;97.20
2653;DHT22;1336;48.692;9.144;2023-03-01T07:01:31;4.50;97.20
2653;DHT22;1336;48.692;9.144;2023-03-01T07:02:23;4.50;97.20
2653;DHT22;1336;48.692;9.144;2023-03-01T07:03:15;4.50;97.20
2653;DHT22;1336;48.692;9.144;2023-03-01T07:04:06;4.50;97.20
2653;DHT22;1336;48.692;9.144;2023-03-01T07:04:57;4.50;97.20
2653;DHT22;1336;48.692;9.144;2023-03-01T07:05:49;4.50;97.20
2653;DHT22;1336;48.692;9.144;2023-03-01T07:06:42;4.50;97.20
2653;DHT22;1336;48.692;9.144;2023-03-01T07:07:33;4.50;97.20
2653;DHT22;1336;48.692;9.144;2023-03-01T07:08:25;4.50;97.20
2653;DHT22;1336;48.692;9.144;2023-03-01T07:09:16;4.50;97.20
2653;DHT22;1336;48.692;9.144;2023-03-01T07:10:11;4.50;97.20
2653;DHT22;1336;48.692;9.144;2023-03-01T07:11:03;4.50;97.20
2653;DHT22;1336;48.692;9.144;2023-03-01T07:11:57;4.50;97.20
2653;DHT22;1336;48.692;9.144;2023-03-01T07:12:49;4.50;97.20
2653;DHT22;1336;48.692;9.144;2023-03-01T07:13:40;4.50;97.20
2653;DHT22;1336;48.692;9.144;2023-03-01T07:14:31;4.50;97.20
2653;DHT22;1336;48.692;9.144;2023-03-01T07:15:24;4.50;97.20
2653;DHT22;1336;48.692;9.144;2023-03-01T07:16:15;4.50;97.20
2653;DHT22;1336;48.692;9.144;2023-03-01T07:17:06;4.50;97.20
2653;DHT22;1336;48.692;9.144;2023-03-01T07:17:59;4.50;97.20
2653;DHT22;1336;48.692;9.144;2023-03-01T07:18:51;4.60;97.20
2653;DHT22;1336;48.692;9.144;2023-03-01T07:19:41;4.60;97.20
2653;DHT22;1336;48.692;9.144;2023-03-01T07:20:34;4.70;97.20
2653;DHT22;1336;48.692;9.144;2023-03-01T07:21:25;4.70;97.20
2653;DHT22;1336;48.692;9.144;2023-03-01T07:22:17;4.70;97.20
2653;DHT22;1336;48.692;9.144;2023-03-01T07:23:08;4.70;97.20
2653;DHT22;1336;48.692;9.144;2023-03-01T07:23:59;4.70;97.20
2653;DHT22;1336;48.692;9.144;2023-03-01T07:24:50;4.80;97.20
2653;DHT22;1336;48.692;9.144;2023-03-01T07:25:42;4.80;97.20
2653;DHT22;1336;48.692;9.144;2023-03-01T07:26:33;4.80;97.20
2653;DHT22;1336;48.692;9.144;2023-03-01T07:27:25;4.80;97.20
2653;DHT22;1336;48.692;9.144;2023-03-01T07:28:15;4.90;97.20
2653;DHT22;1336;48.692;9.144;2023-03-01T07:29:10;4.90;97.20
2653;DHT22;1336;48.692;9.144;2023-03-01T07:30:01;5.00;97.20
2653;DHT22;1336;48.692;9.144;2023-03-01T07:30:53;5.00;97.20
2653;DHT22;1336;48.692;9.144;2023-03-01T07:31:44;5.00;97.20
2653;DHT22;1336;48.692;9.144;2023-03-01T07:32:36;5.10;97.20
2653;DHT22;1336;48.692;9.144;2023-03-01T07:33:28;5.10;97.20
2653;DHT22;1336;48.692;9.144;2023-03-01T07:34:19;5.20;97.20
2653;DHT22;1336;48.692;9.144;2023-03-01T07:35:10;5.20;97.20
2653;DHT22;1336;48.692;9.144;2023-03-01T07:36:03;5.20;97.20
2653;DHT22;1336;48.692;9.144;2023-03-01T07:36:54;5.30;97.20
2653;DHT22;1336;48.692;9.144;2023-03-01T07:37:46;5.30;97.20
2653;DHT22;1336;48.692;9.144;2023-03-01T07:38:36;5.40;97.20
2653;DHT22;1336;48.692;9.144;2023-03-01T07:39:28;5.40;97.20
2653;DHT22;1336;48.692;9.144;2023-03-01T07:40:19;5.50;97.20
2653;DHT22;1336;48.692;9.144;2023-03-01T07:41:11;5.50;97.20
2653;DHT22;1336;48.692;9.144;2023-03-01T07:42:02;5.60;97.20
2653;DHT22;1336;48.692;9.144;2023-03-01T07:42:55;5.60;97.20
2653;DHT22;1336;48.692;9.144;2023-03-01T07:43:47;5.60;97.20
2653;DHT22;1336;48.692;9.144;2023-03-01T07:44:38;5.70;97.20
2653;DHT22;1336;48.692;9.144;2023-03-01T07:45:29;5.80;97.20
2653;DHT22;1336;48.692;9.144;2023-03-01T07:46:20;5.80;97.20
2653;DHT22;1336;48.692;9.144;2023-03-01T07:47:12;5.80;97.20
2653;DHT22;1336;48.692;9.144;2023-03-01T07:48:03;5.90;97.20
2653;DHT22;1336;48.692;9.144;2023-03-01T07:48:56;5.90;97.20
2653;DHT22;1336;48.692;9.144;2023-03-01T07:49:48;6.00;97.20
2653;DHT22;1336;48.692;9.144;2023-03-01T07:50:40;6.00;97.20
2653;DHT22;1336;48.692;9.144;2023-03-01T07:51:30;6.00;97.20
2653;DHT22;1336;48.692;9.144;2023-03-01T07:52:22;6.10;97.20
2653;DHT22;1336;48.692;9.144;2023-03-01T07:53:13;6.10;97.20
2653;DHT22;1336;48.692;9.144;2023-03-01T07:54:05;6.10;97.20
2653;DHT22;1336;48.692;9.144;2023-03-01T07:54:55;6.20;97.20
2653;DHT22;1336;48.692;9.144;2023-03-01T07:55:47;6.20;97.20
2653;DHT22;1336;48.692;9.144;2023-03-01T07:56:38;6.30;97.20
2653;DHT22;1336;48.692;9.144;2023-03-01T07:57:31;6.40;97.20
2653;DHT22;1336;48.692;9.144;2023-03-01T07:58:21;6.40;97.20
2653;DHT22;1336;48.692;9.144;2023-03-01T07:59:13;6.50;97.20
2653;DHT22;1336;48.692;9.144;2023-03-01T08:00:05;6.50;97.20
2653;DHT22;1336;48.692;9.144;2023-03-01T08:01:01;6.60;97.20
2653;DHT22;1336;48.692;9.144;2023-03-01T08:01:51;6.60;97.20
2653;DHT22;1336;48.692;9.144;2023-03-01T08:02:43;6.60;97.20
2653;DHT22;1336;48.692;9.144;2023-03-01T08:03:34;6.70;97.20
2653;DHT22;1336;48.692;9.144;2023-03-01T08:04:27;6.80;97.20
2653;DHT22;1336;48.692;9.144;2023-03-01T08:05:18;6.80;97.20
2653;DHT22;1336;48.692;9.144;2023-03-01T08:06:13;6.80;97.20
2653;DHT22;1336;48.692;9.144;2023-03-01T08:07:05;6.90;97.20
2653;DHT22;1336;48.692;9.144;2023-03-01T08:07:57;6.90;97.20
2653;DHT22;1336;48.692;9.144;2023-03-01T08:08:48;6.90;97.20
2653;DHT22;1336;48.692;9.144;2023-03-01T08:09:39;7.00;97.20
2653;DHT22;1336;48.692;9.144;2023-03-01T08:10:30;7.00;97.20
2653;DHT22;1336;48.692;9.144;2023-03-01T08:11:22;7.10;97.20
2653;DHT22;1336;48.692;9.144;2023-03-01T08:12:13;7.10;97.20
2653;DHT22;1336;48.692;9.144;2023-03-01T08:13:06;7.10;97.20
2653;DHT22;1336;48.692;9.144;2023-03-01T08:13:57;7.20;97.20
2653;DHT22;1336;48.692;9.144;2023-03-01T08:14:49;7.20;97.20
2653;DHT22;1336;48.692;9.144;2023-03-01T08:15:39;7.20;97.20
2653;DHT22;1336;48.692;9.144;2023-03-01T08:16:31;7.30;97.20
2653;DHT22;1336;48.692;9.144;2023-03-01T08:17:23;7.40;97.20
2653;DHT22;1336;48.692;9.144;2023-03-01T08:18:16;7.40;97.20
2653;DHT22;1336;48.692;9.144;2023-03-01T08:19:07;7.50;97.20
2653;DHT22;1336;48.692;9.144;2023-03-01T08:20:01;7.60;97.20
2653;DHT22;1336;48.692;9.144;2023-03-01T08:20:53;7.60;97.20
2653;DHT22;1336;48.692;9.144;2023-03-01T08:21:45;7.70;97.20
2653;DHT22;1336;48.692;9.144;2023-03-01T08:22:36;7.70;97.20
2653;DHT22;1336;48.692;9.144;2023-03-01T08:23:27;7.80;97.20
2653;DHT22;1336;48.692;9.144;2023-03-01T08:24:18;7.80;97.20
2653;DHT22;1336;48.692;9.144;2023-03-01T08:25:10;7.80;97.20
2653;DHT22;1336;48.692;9.144;2023-03-01T08:26:06;7.90;97.20
2653;DHT22;1336;48.692;9.144;2023-03-01T08:26:58;7.90;97.20
2653;DHT22;1336;48.692;9.144;2023-03-01T08:27:49;8.00;97.20
2653;DHT22;1336;48.692;9.144;2023-03-01T08:28:41;8.00;97.20
2653;DHT22;1336;48.692;9.144;2023-03-01T08:29:32;8.10;97.20
2653;DHT22;1336;48.692;9.144;2023-03-01T08:30:25;8.10;97.20
2653;DHT22;1336;48.692;9.144;2023-03-01T08:31:18;8.20;97.20
2653;DHT22;1336;48.692;9.144;2023-03-01T08:32:10;8.20;97.20
2653;DHT22;1336;48.692;9.144;2023-03-01T08:33:01;8.30;97.20
2653;DHT22;1336;48.692;9.144;2023-03-01T08:33:54;8.30;97.20
2653;DHT22;1336;48.692;9.144;2023-03-01T08:34:46;8.40;97.20
2653;DHT22;1336;48.692;9.144;2023-03-01T08:35:39;8.50;97.20
2653;DHT22;1336;48.692;9.144;2023-03-01T08:36:32;8.50;97.20
2653;DHT22;1336;48.692;9.144;2023-03-01T08:37:24;8.50;97.20
2653;DHT22;1336;48.692;9.144;2023-03-01T08:38:15;8.60;97.20
2653;DHT22;1336;48.692;9.144;2023-03-01T08:39:08;8.60;97.20
2653;DHT22;1336;48.692;9.144;2023-03-01T08:39:59;8.70;97.20
2653;DHT22;1336;48.692;9.144;2023-03-01T08:40:51;8.70;97.20
2653;DHT22;1336;48.692;9.144;2023-03-01T08:41:42;8.80;97.20
2653;DHT22;1336;48.692;9.144;2023-03-01T08:42:33;8.80;97.20
2653;DHT22;1336;48.692;9.144;2023-03-01T08:43:24;8.90;97.20
2653;DHT22;1336;48.692;9.144;2023-03-01T08:44:16;8.90;97.20
2653;DHT22;1336;48.692;9.144;2023-03-01T08:45:09;9.00;97.20
2653;DHT22;1336;48.692;9.144;2023-03-01T08:46:00;9.00;97.20
2653;DHT22;1336;48.692;9.144;2023-03-01T08:46:52;9.00;97.20
2653;DHT22;1336;48.692;9.144;2023-03-01T08:47:44;9.10;97.20
2653;DHT22;1336;48.692;9.144;2023-03-01T08:48:36;9.20;97.20
2653;DHT22;1336;48.692;9.144;2023-03-01T08:49:27;9.20;97.20
2653;DHT22;1336;48.692;9.144;2023-03-01T08:50:19;9.30;97.20
2653;DHT22;1336;48.692;9.144;2023-03-01T08:51:14;9.40;97.20
2653;DHT22;1336;48.692;9.144;2023-03-01T08:52:05;9.50;97.20
2653;DHT22;1336;48.692;9.144;2023-03-01T08:52:56;9.50;97.20
2653;DHT22;1336;48.692;9.144;2023-03-01T08:53:48;9.60;97.20
2653;DHT22;1336;48.692;9.144;2023-03-01T08:54:39;9.60;97.20
2653;DHT22;1336;48.692;9.144;2023-03-01T08:55:30;9.70;97.20
2653;DHT22;1336;48.692;9.144;2023-03-01T08:56:22;9.80;97.20
2653;DHT22;1336;48.692;9.144;2023-03-01T08:57:13;9.90;97.20
2653;DHT22;1336;48.692;9.144;2023-03-01T08:58:05;10.00;97.20
2653;DHT22;1336;48.692;9.144;2023-03-01T08:58:55;10.00;97.20
2653;DHT22;1336;48.692;9.144;2023-03-01T08:59:47;10.10;97.20
2653;DHT22;1336;48.692;9.144;2023-03-01T09:00:38;10.20;97.20
2653;DHT22;1336;48.692;9.144;2023-03-01T09:01:30;10.30;97.20
2653;DHT22;1336;48.692;9.144;2023-03-01T09:02:21;10.40;97.20
2653;DHT22;1336;48.692;9.144;2023-03-01T09:03:12;10.40;97.20
2653;DHT22;1336;48.692;9.144;2023-03-01T09:04:03;10.50;97.20
2653;DHT22;1336;48.692;9.144;2023-03-01T09:04:55;10.60;97.20
2653;DHT22;1336;48.692;9.144;2023-03-01T09:05:46;10.60;97.20
2653;DHT22;1336;48.692;9.144;2023-03-01T09:06:39;10.70;97.20
2653;DHT22;1336;48.692;9.144;2023-03-01T09:07:29;10.70;97.20
2653;DHT22;1336;48.692;9.144;2023-03-01T09:08:21;10.80;97.20
2653;DHT22;1336;48.692;9.144;2023-03-01T09:09:14;10.80;97.20
2653;DHT22;1336;48.692;9.144;2023-03-01T09:10:07;10.90;97.20
2653;DHT22;1336;48.692;9.144;2023-03-01T09:10:58;11.00;97.20
2653;DHT22;1336;48.692;9.144;2023-03-01T09:11:52;11.00;97.20
2653;DHT22;1336;48.692;9.144;2023-03-01T09:12:43;11.00;97.20
2653;DHT22;1336;48.692;9.144;2023-03-01T09:13:35;11.10;97.20
2653;DHT22;1336;48.692;9.144;2023-03-01T09:14:26;11.20;97.20
2653;DHT22;1336;48.692;9.144;2023-03-01T09:15:17;11.30;97.20
2653;DHT22;1336;48.692;9.144;2023-03-01T09:16:09;11.40;97.20
2653;DHT22;1336;48.692;9.144;2023-03-01T09:17:01;11.50;97.20
2653;DHT22;1336;48.692;9.144;2023-03-01T09:17:53;11.60;97.20
2653;DHT22;1336;48.692;9.144;2023-03-01T09:18:48;11.70;97.20
2653;DHT22;1336;48.692;9.144;2023-03-01T09:19:39;11.80;97.20
2653;DHT22;1336;48.692;9.144;2023-03-01T09:20:31;11.80;97.20
2653;DHT22;1336;48.692;9.144;2023-03-01T09:21:23;11.90;97.20
2653;DHT22;1336;48.692;9.144;2023-03-01T09:22:16;11.90;97.20
2653;DHT22;1336;48.692;9.144;2023-03-01T09:23:08;12.00;97.20
2653;DHT22;1336;48.692;9.144;2023-03-01T09:23:58;12.10;97.20
2653;DHT22;1336;48.692;9.144;2023-03-01T09:24:50;12.20;97.20
2653;DHT22;1336;48.692;9.144;2023-03-01T09:25:41;12.30;97.20
2653;DHT22;1336;48.692;9.144;2023-03-01T09:26:32;12.40;97.20
2653;DHT22;1336;48.692;9.144;2023-03-01T09:27:23;12.60;97.20
2653;DHT22;1336;48.692;9.144;2023-03-01T09:28:15;12.70;97.20
2653;DHT22;1336;48.692;9.144;2023-03-01T09:29:06;12.80;97.20
2653;DHT22;1336;48.692;9.144;2023-03-01T09:29:59;13.00;97.20
2653;DHT22;1336;48.692;9.144;2023-03-01T09:30:50;13.20;97.20
2653;DHT22;1336;48.692;9.144;2023-03-01T09:31:42;13.50;97.20
2653;DHT22;1336;48.692;9.144;2023-03-01T09:32:33;14.00;97.20
2653;DHT22;1336;48.692;9.144;2023-03-01T09:33:24;14.80;96.60
2653;DHT22;1336;48.692;9.144;2023-03-01T09:34:15;16.00;95.10
2653;DHT22;1336;48.692;9.144;2023-03-01T09:35:13;17.20;93.20
2653;DHT22;1336;48.692;9.144;2023-03-01T09:36:06;18.50;90.90
2653;DHT22;1336;48.692;9.144;2023-03-01T09:36:58;19.70;88.80
2653;DHT22;1336;48.692;9.144;2023-03-01T09:37:54;20.90;86.30
2653;DHT22;1336;48.692;9.144;2023-03-01T09:38:46;22.10;83.90
2653;DHT22;1336;48.692;9.144;2023-03-01T09:39:37;23.00;81.60
2653;DHT22;1336;48.692;9.144;2023-03-01T09:40:28;23.80;80.30
2653;DHT22;1336;48.692;9.144;2023-03-01T09:41:44;24.50;78.20
2653;DHT22;1336;48.692;9.144;2023-03-01T09:42:47;25.30;76.40
2653;DHT22;1336;48.692;9.144;2023-03-01T09:43:47;26.30;74.20
2653;DHT22;1336;48.692;9.144;2023-03-01T09:44:43;27.00;72.60
2653;DHT22;1336;48.692;9.144;2023-03-01T09:45:41;27.60;71.50
2653;DHT22;1336;48.692;9.144;2023-03-01T09:46:42;28.10;70.30
2653;DHT22;1336;48.692;9.144;2023-03-01T09:47:35;28.60;69.20
2653;DHT22;1336;48.692;9.144;2023-03-01T09:48:37;29.00;68.10
2653;DHT22;1336;48.692;9.144;2023-03-01T09:49:31;29.40;68.00
2653;DHT22;1336;48.692;9.144;2023-03-01T09:50:25;29.80;67.30
2653;DHT22;1336;48.692;9.144;2023-03-01T09:51:23;30.10;66.50
2653;DHT22;1336;48.692;9.144;2023-03-01T09:52:25;30.50;66.10
2653;DHT22;1336;48.692;9.144;2023-03-01T09:53:23;30.90;64.80
2653;DHT22;1336;48.692;9.144;2023-03-01T09:54:17;31.20;64.50
2653;DHT22;1336;48.692;9.144;2023-03-01T09:55:12;31.60;64.20
2653;DHT22;1336;48.692;9.144;2023-03-01T09:56:10;32.00;64.00
2653;DHT22;1336;48.692;9.144;2023-03-01T09:57:16;32.40;63.50
2653;DHT22;1336;48.692;9.144;2023-03-01T09:58:28;32.80;62.60
2653;DHT22;1336;48.692;9.144;2023-03-01T09:59:25;33.20;62.10
2653;DHT22;1336;48.692;9.144;2023-03-01T10:00:27;33.50;61.60
2653;DHT22;1336;48.692;9.144;2023-03-01T10:01:28;33.80;61.20
2653;DHT22;1336;48.692;9.144;2023-03-01T10:02:27;34.00;61.30
2653;DHT22;1336;48.692;9.144;2023-03-01T10:03:26;34.30;60.80
2653;DHT22;1336;48.692;9.144;2023-03-01T10:04:36;34.30;60.20
2653;DHT22;1336;48.692;9.144;2023-03-01T10:05:37;34.40;59.70
2653;DHT22;1336;48.692;9.144;2023-03-01T10:06:28;34.40;59.80
2653;DHT22;1336;48.692;9.144;2023-03-01T10:07:29;34.20;59.60
2653;DHT22;1336;48.692;9.144;2023-03-01T10:08:33;34.00;59.90
2653;DHT22;1336;48.692;9.144;2023-03-01T10:09:29;34.00;59.80
2653;DHT22;1336;48.692;9.144;2023-03-01T10:10:29;34.10;59.80
2653;DHT22;1336;48.692;9.144;2023-03-01T10:11:25;34.40;59.70
2653;DHT22;1336;48.692;9.144;2023-03-01T10:12:20;34.70;59.60
2653;DHT22;1336;48.692;9.144;2023-03-01T10:13:19;35.10;59.20
2653;DHT22;1336;48.692;9.144;2023-03-01T10:14:22;35.40;58.80
2653;DHT22;1336;48.692;9.144;2023-03-01T10:15:22;35.80;58.20
2653;DHT22;1336;48.692;9.144;2023-03-01T10:16:19;36.30;57.70
2653;DHT22;1336;48.692;9.144;2023-03-01T10:17:18;36.70;57.60
2653;DHT22;1336;48.692;9.144;2023-03-01T10:18:13;37.10;57.00
2653;DHT22;1336;48.692;9.144;2023-03-01T10:19:09;37.40;56.50
2653;DHT22;1336;48.692;9.144;2023-03-01T10:20:18;37.80;56.20
2653;DHT22;1336;48.692;9.144;2023-03-01T10:21:14;38.00;55.80
2653;DHT22;1336;48.692;9.144;2023-03-01T10:22:13;38.30;55.60
2653;DHT22;1336;48.692;9.144;2023-03-01T10:23:07;38.50;55.20
2653;DHT22;1336;48.692;9.144;2023-03-01T10:24:10;38.70;55.20
2653;DHT22;1336;48.692;9.144;2023-03-01T10:25:03;38.90;54.40
2653;DHT22;1336;48.692;9.144;2023-03-01T10:26:07;39.20;54.50
2653;DHT22;1336;48.692;9.144;2023-03-01T10:27:04;39.40;54.10
2653;DHT22;1336;48.692;9.144;2023-03-01T10:28:02;39.60;53.90
2653;DHT22;1336;48.692;9.144;2023-03-01T10:29:02;39.80;53.90
2653;DHT22;1336;48.692;9.144;2023-03-01T10:29:58;40.00;53.60
2653;DHT22;1336;48.692;9.144;2023-03-01T10:30:54;40.20;53.40
2653;DHT22;1336;48.692;9.144;2023-03-01T10:31:47;40.30;53.20
2653;DHT22;1336;48.692;9.144;2023-03-01T10:32:40;40.50;52.90
2653;DHT22;1336;48.692;9.144;2023-03-01T10:33:32;40.60;52.70
2653;DHT22;1336;48.692;9.144;2023-03-01T10:34:28;40.70;52.90
2653;DHT22;1336;48.692;9.144;2023-03-01T10:35:21;40.80;52.70
2653;DHT22;1336;48.692;9.144;2023-03-01T10:36:13;41.00;52.70
2653;DHT22;1336;48.692;9.144;2023-03-01T10:37:10;41.30;52.60
2653;DHT22;1336;48.692;9.144;2023-03-01T10:38:05;41.50;51.70
2653;DHT22;1336;48.692;9.144;2023-03-01T10:38:57;41.70;51.90
2653;DHT22;1336;48.692;9.144;2023-03-01T10:39:58;41.90;51.80
2653;DHT22;1336;48.692;9.144;2023-03-01T10:40:53;42.00;51.50
2653;DHT22;1336;48.692;9.144;2023-03-01T10:41:57;42.10;51.60
2653;DHT22;1336;48.692;9.144;2023-03-01T10:42:49;42.20;51.00
2653;DHT22;1336;48.692;9.144;2023-03-01T10:43:45;42.30;51.30
2653;DHT22;1336;48.692;9.144;2023-03-01T10:44:40;42.40;51.10
2653;DHT22;1336;48.692;9.144;2023-03-01T10:45:34;42.40;50.80
2653;DHT22;1336;48.692;9.144;2023-03-01T10:46:28;42.50;50.90
2653;DHT22;1336;48.692;9.144;2023-03-01T10:47:21;42.60;50.60
2653;DHT22;1336;48.692;9.144;2023-03-01T10:48:15;42.70;50.80
2653;DHT22;1336;48.692;9.144;2023-03-01T10:49:12;42.80;50.40
2653;DHT22;1336;48.692;9.144;2023-03-01T10:50:18;42.90;50.40
2653;DHT22;1336;48.692;9.144;2023-03-01T10:51:17;43.00;50.00
2653;DHT22;1336;48.692;9.144;2023-03-01T10:52:18;43.10;50.30
2653;DHT22;1336;48.692;9.144;2023-03-01T10:53:23;43.20;50.00
2653;DHT22;1336;48.692;9.144;2023-03-01T10:54:17;43.30;49.80
2653;DHT22;1336;48.692;9.144;2023-03-01T10:55:25;43.50;50.20
2653;DHT22;1336;48.692;9.144;2023-03-01T10:56:16;43.60;49.90
2653;DHT22;1336;48.692;9.144;2023-03-01T10:57:27;43.70;49.90
2653;DHT22;1336;48.692;9.144;2023-03-01T10:58:21;43.90;49.10
2653;DHT22;1336;48.692;9.144;2023-03-01T10:59:22;44.00;49.80
2653;DHT22;1336;48.692;9.144;2023-03-01T11:00:22;44.00;49.40
2653;DHT22;1336;48.692;9.144;2023-03-01T11:01:25;44.00;49.60
2653;DHT22;1336;48.692;9.144;2023-03-01T11:02:21;44.10;49.40
2653;DHT22;1336;48.692;9.144;2023-03-01T11:03:15;44.10;49.20
2653;DHT22;1336;48.692;9.144;2023-03-01T11:04:13;44.20;49.10
2653;DHT22;1336;48.692;9.144;2023-03-01T11:05:18;44.30;48.90
2653;DHT22;1336;48.692;9.144;2023-03-01T11:06:21;44.40;48.40
2653;DHT22;1336;48.692;9.144;2023-03-01T11:07:13;44.60;48.90
2653;DHT22;1336;48.692;9.144;2023-03-01T11:08:04;44.70;49.10
2653;DHT22;1336;48.692;9.144;2023-03-01T11:08:55;44.80;49.10
2653;DHT22;1336;48.692;9.144;2023-03-01T11:09:47;45.00;49.20
2653;DHT22;1336;48.692;9.144;2023-03-01T11:10:39;45.10;48.80
2653;DHT22;1336;48.692;9.144;2023-03-01T11:11:32;45.10;48.70
2653;DHT22;1336;48.692;9.144;2023-03-01T11:12:25;45.20;48.70
2653;DHT22;1336;48.692;9.144;2023-03-01T11:13:18;45.20;48.10
2653;DHT22;1336;48.692;9.144;2023-03-01T11:14:15;45.10;48.00
2653;DHT22;1336;48.692;9.144;2023-03-01T11:15:20;45.20;48.30
2653;DHT22;1336;48.692;9.144;2023-03-01T11:16:12;45.20;47.60
2653;DHT22;1336;48.692;9.144;2023-03-01T11:17:11;45.30;48.10
2653;DHT22;1336;48.692;9.144;2023-03-01T11:18:04;45.40;48.10
2653;DHT22;1336;48.692;9.144;2023-03-01T11:19:00;45.40;48.30
2653;DHT22;1336;48.692;9.144;2023-03-01T11:20:01;45.30;48.00
2653;DHT22;1336;48.692;9.144;2023-03-01T11:20:55;45.40;47.80
2653;DHT22;1336;48.692;9.144;2023-03-01T11:21:53;45.40;48.10
2653;DHT22;1336;48.692;9.144;2023-03-01T11:22:48;45.40;48.20
2653;DHT22;1336;48.692;9.144;2023-03-01T11:23:41;45.40;47.90
2653;DHT22;1336;48.692;9.144;2023-03-01T11:24:39;45.50;48.10
2653;DHT22;1336;48.692;9.144;2023-03-01T11:25:34;45.60;48.00
2653;DHT22;1336;48.692;9.144;2023-03-01T11:26:28;45.70;47.70
2653;DHT22;1336;48.692;9.144;2023-03-01T11:27:24;45.80;47.80
2653;DHT22;1336;48.692;9.144;2023-03-01T11:28:18;46.00;47.50
2653;DHT22;1336;48.692;9.144;2023-03-01T11:29:16;46.10;47.70
2653;DHT22;1336;48.692;9.144;2023-03-01T11:30:17;46.30;47.40
2653;DHT22;1336;48.692;9.144;2023-03-01T11:31:10;46.40;47.70
2653;DHT22;1336;48.692;9.144;2023-03-01T11:32:08;46.40;47.60
2653;DHT22;1336;48.692;9.144;2023-03-01T11:33:10;46.50;47.30
2653;DHT22;1336;48.692;9.144;2023-03-01T11:34:10;46.50;47.30
2653;DHT22;1336;48.692;9.144;2023-03-01T11:35:05;46.60;47.30
2653;DHT22;1336;48.692;9.144;2023-03-01T11:36:03;46.70;47.50
2653;DHT22;1336;48.692;9.144;2023-03-01T11:36:59;46.70;47.20
2653;DHT22;1336;48.692;9.144;2023-03-01T11:38:02;46.80;47.20
2653;DHT22;1336;48.692;9.144;2023-03-01T11:38:55;46.80;46.80
2653;DHT22;1336;48.692;9.144;2023-03-01T11:39:55;46.90;47.20
2653;DHT22;1336;48.692;9.144;2023-03-01T11:40:53;46.90;46.70
2653;DHT22;1336;48.692;9.144;2023-03-01T11:42:03;46.90;47.10
2653;DHT22;1336;48.692;9.144;2023-03-01T11:43:04;46.90;46.70
2653;DHT22;1336;48.692;9.144;2023-03-01T11:43:59;46.90;47.30
2653;DHT22;1336;48.692;9.144;2023-03-01T11:44:54;46.90;47.10
2653;DHT22;1336;48.692;9.144;2023-03-01T11:45:55;47.00;47.00
2653;DHT22;1336;48.692;9.144;2023-03-01T11:47:08;47.00;47.10
2653;DHT22;1336;48.692;9.144;2023-03-01T11:48:12;47.00;46.90
2653;DHT22;1336;48.692;9.144;2023-03-01T11:49:36;47.10;46.90
2653;DHT22;1336;48.692;9.144;2023-03-01T11:50:35;47.10;47.00
2653;DHT22;1336;48.692;9.144;2023-03-01T11:51:41;47.20;47.00
2653;DHT22;1336;48.692;9.144;2023-03-01T11:52:44;47.20;46.70
2653;DHT22;1336;48.692;9.144;2023-03-01T11:53:54;47.10;46.80
2653;DHT22;1336;48.692;9.144;2023-03-01T11:54:58;47.10;46.50
2653;DHT22;1336;48.692;9.144;2023-03-01T11:56:02;47.20;46.40